sensor_id;sensor_type;location;lat;lon;timestamp;P1;durP1;ratioP1;P2;durP2;ratioP2
78799;SDS011;68148;55.328;86.106;2023-07-31T00:00:01;16.02;;;9.50;;
78799;SDS011;68148;55.328;86.106;2023-07-31T00:02:27;13.63;;;9.82;;
78799;SDS011;68148;55.328;86.106;2023-07-31T00:04:53;16.45;;;9.60;;
78799;SDS011;68148;55.328;86.106;2023-07-31T00:07:30;16.48;;;11.65;;
78799;SDS011;68148;55.328;86.106;2023-07-31T00:10:00;15.73;;;9.88;;
78799;SDS011;68148;55.328;86.106;2023-07-31T00:12:27;15.73;;;10.02;;
78799;SDS011;68148;55.328;86.106;2023-07-31T00:14:53;16.85;;;9.80;;
78799;SDS011;68148;55.328;86.106;2023-07-31T00:17:18;16.10;;;9.88;;
78799;SDS011;68148;55.328;86.106;2023-07-31T00:19:44;17.02;;;11.20;;
78799;SDS011;68148;55.328;86.106;2023-07-31T00:22:10;16.58;;;10.38;;
78799;SDS011;68148;55.328;86.106;2023-07-31T00:24:36;17.38;;;8.63;;
78799;SDS011;68148;55.328;86.106;2023-07-31T00:27:02;16.80;;;10.13;;
78799;SDS011;68148;55.328;86.106;2023-07-31T00:29:28;15.98;;;10.13;;
78799;SDS011;68148;55.328;86.106;2023-07-31T00:31:54;12.75;;;8.60;;
78799;SDS011;68148;55.328;86.106;2023-07-31T00:34:19;12.82;;;8.43;;
78799;SDS011;68148;55.328;86.106;2023-07-31T00:36:45;13.75;;;9.15;;
78799;SDS011;68148;55.328;86.106;2023-07-31T00:39:11;16.70;;;10.20;;
78799;SDS011;68148;55.328;86.106;2023-07-31T00:41:37;12.57;;;8.48;;
78799;SDS011;68148;55.328;86.106;2023-07-31T00:44:02;14.13;;;9.70;;
78799;SDS011;68148;55.328;86.106;2023-07-31T00:46:28;13.88;;;9.18;;
78799;SDS011;68148;55.328;86.106;2023-07-31T00:48:54;13.65;;;8.63;;
78799;SDS011;68148;55.328;86.106;2023-07-31T00:51:20;16.38;;;8.48;;
78799;SDS011;68148;55.328;86.106;2023-07-31T00:53:46;14.35;;;9.13;;
78799;SDS011;68148;55.328;86.106;2023-07-31T00:56:12;10.02;;;7.32;;
78799;SDS011;68148;55.328;86.106;2023-07-31T00:58:41;11.48;;;7.57;;
78799;SDS011;68148;55.328;86.106;2023-07-31T01:01:07;12.25;;;8.13;;
78799;SDS011;68148;55.328;86.106;2023-07-31T01:03:45;13.95;;;8.75;;
78799;SDS011;68148;55.328;86.106;2023-07-31T01:08:54;14.18;;;8.05;;
78799;SDS011;68148;55.328;86.106;2023-07-31T01:11:28;15.75;;;8.52;;
78799;SDS011;68148;55.328;86.106;2023-07-31T01:13:56;13.55;;;8.32;;
78799;SDS011;68148;55.328;86.106;2023-07-31T01:16:23;14.57;;;7.47;;
78799;SDS011;68148;55.328;86.106;2023-07-31T01:18:50;14.77;;;8.10;;
78799;SDS011;68148;55.328;86.106;2023-07-31T01:26:40;10.50;;;6.63;;
78799;SDS011;68148;55.328;86.106;2023-07-31T01:29:17;12.63;;;7.05;;
78799;SDS011;68148;55.328;86.106;2023-07-31T01:31:51;9.63;;;6.68;;
78799;SDS011;68148;55.328;86.106;2023-07-31T01:34:21;15.07;;;7.40;;
78799;SDS011;68148;55.328;86.106;2023-07-31T01:36:47;9.50;;;6.32;;
78799;SDS011;68148;55.328;86.106;2023-07-31T01:39:13;12.00;;;6.40;;
78799;SDS011;68148;55.328;86.106;2023-07-31T01:41:39;11.88;;;6.35;;
78799;SDS011;68148;55.328;86.106;2023-07-31T01:44:05;11.52;;;6.68;;
78799;SDS011;68148;55.328;86.106;2023-07-31T01:46:31;7.63;;;5.18;;
78799;SDS011;68148;55.328;86.106;2023-07-31T01:48:58;12.05;;;5.30;;
78799;SDS011;68148;55.328;86.106;2023-07-31T01:51:24;10.18;;;5.90;;
78799;SDS011;68148;55.328;86.106;2023-07-31T01:53:50;13.15;;;5.38;;
78799;SDS011;68148;55.328;86.106;2023-07-31T01:56:15;11.25;;;4.80;;
78799;SDS011;68148;55.328;86.106;2023-07-31T01:58:41;11.05;;;5.40;;
78799;SDS011;68148;55.328;86.106;2023-07-31T02:01:07;11.48;;;5.03;;
78799;SDS011;68148;55.328;86.106;2023-07-31T02:03:34;8.15;;;5.07;;
78799;SDS011;68148;55.328;86.106;2023-07-31T02:06:00;13.10;;;5.78;;
78799;SDS011;68148;55.328;86.106;2023-07-31T02:08:27;9.48;;;3.85;;
78799;SDS011;68148;55.328;86.106;2023-07-31T02:10:53;11.25;;;5.28;;
78799;SDS011;68148;55.328;86.106;2023-07-31T02:13:19;13.15;;;5.82;;
78799;SDS011;68148;55.328;86.106;2023-07-31T02:15:45;20.70;;;5.50;;
78799;SDS011;68148;55.328;86.106;2023-07-31T02:18:11;20.45;;;8.25;;
78799;SDS011;68148;55.328;86.106;2023-07-31T02:20:38;19.45;;;6.60;;
78799;SDS011;68148;55.328;86.106;2023-07-31T02:23:04;23.35;;;6.85;;
78799;SDS011;68148;55.328;86.106;2023-07-31T02:25:30;21.80;;;6.78;;
78799;SDS011;68148;55.328;86.106;2023-07-31T02:27:56;21.98;;;6.55;;
78799;SDS011;68148;55.328;86.106;2023-07-31T02:30:22;24.90;;;7.22;;
78799;SDS011;68148;55.328;86.106;2023-07-31T02:32:48;15.57;;;6.53;;
78799;SDS011;68148;55.328;86.106;2023-07-31T02:35:14;15.23;;;5.70;;
78799;SDS011;68148;55.328;86.106;2023-07-31T02:37:40;15.13;;;6.35;;
78799;SDS011;68148;55.328;86.106;2023-07-31T02:40:06;18.23;;;7.18;;
78799;SDS011;68148;55.328;86.106;2023-07-31T02:42:32;16.70;;;7.20;;
78799;SDS011;68148;55.328;86.106;2023-07-31T02:44:58;19.67;;;7.03;;
78799;SDS011;68148;55.328;86.106;2023-07-31T02:47:23;19.75;;;5.75;;
78799;SDS011;68148;55.328;86.106;2023-07-31T02:49:49;18.30;;;6.40;;
78799;SDS011;68148;55.328;86.106;2023-07-31T02:52:15;14.77;;;6.15;;
78799;SDS011;68148;55.328;86.106;2023-07-31T02:54:41;15.75;;;6.07;;
78799;SDS011;68148;55.328;86.106;2023-07-31T02:57:07;12.13;;;5.93;;
78799;SDS011;68148;55.328;86.106;2023-07-31T02:59:33;13.20;;;5.35;;
78799;SDS011;68148;55.328;86.106;2023-07-31T03:01:58;17.55;;;6.05;;
78799;SDS011;68148;55.328;86.106;2023-07-31T03:04:24;11.77;;;5.40;;
78799;SDS011;68148;55.328;86.106;2023-07-31T03:06:50;16.95;;;6.18;;
78799;SDS011;68148;55.328;86.106;2023-07-31T03:09:16;16.88;;;6.13;;
78799;SDS011;68148;55.328;86.106;2023-07-31T03:11:42;12.35;;;5.50;;
78799;SDS011;68148;55.328;86.106;2023-07-31T03:14:09;13.88;;;5.93;;
78799;SDS011;68148;55.328;86.106;2023-07-31T03:16:35;16.45;;;5.70;;
78799;SDS011;68148;55.328;86.106;2023-07-31T03:19:01;15.98;;;6.35;;
78799;SDS011;68148;55.328;86.106;2023-07-31T03:21:26;19.08;;;6.05;;
78799;SDS011;68148;55.328;86.106;2023-07-31T03:23:53;18.38;;;6.97;;
78799;SDS011;68148;55.328;86.106;2023-07-31T03:26:19;21.90;;;7.53;;
78799;SDS011;68148;55.328;86.106;2023-07-31T03:28:44;27.42;;;7.45;;
78799;SDS011;68148;55.328;86.106;2023-07-31T03:31:10;27.60;;;7.90;;
78799;SDS011;68148;55.328;86.106;2023-07-31T03:33:39;20.13;;;7.32;;
78799;SDS011;68148;55.328;86.106;2023-07-31T03:38:35;25.48;;;8.07;;
78799;SDS011;68148;55.328;86.106;2023-07-31T03:41:01;20.42;;;7.13;;
78799;SDS011;68148;55.328;86.106;2023-07-31T03:43:27;23.90;;;8.23;;
78799;SDS011;68148;55.328;86.106;2023-07-31T03:45:53;32.53;;;8.70;;
78799;SDS011;68148;55.328;86.106;2023-07-31T03:48:19;23.85;;;7.25;;
78799;SDS011;68148;55.328;86.106;2023-07-31T03:50:45;30.92;;;7.35;;
78799;SDS011;68148;55.328;86.106;2023-07-31T03:53:10;23.50;;;6.57;;
78799;SDS011;68148;55.328;86.106;2023-07-31T03:55:36;23.33;;;7.10;;
78799;SDS011;68148;55.328;86.106;2023-07-31T03:58:02;16.38;;;6.32;;
78799;SDS011;68148;55.328;86.106;2023-07-31T04:00:28;14.32;;;6.13;;
78799;SDS011;68148;55.328;86.106;2023-07-31T04:02:53;19.85;;;6.70;;
78799;SDS011;68148;55.328;86.106;2023-07-31T04:05:19;17.58;;;6.50;;
78799;SDS011;68148;55.328;86.106;2023-07-31T04:07:45;18.77;;;6.63;;
78799;SDS011;68148;55.328;86.106;2023-07-31T04:10:11;19.55;;;6.93;;
78799;SDS011;68148;55.328;86.106;2023-07-31T04:12:36;23.35;;;6.63;;
78799;SDS011;68148;55.328;86.106;2023-07-31T04:15:02;28.73;;;8.20;;
78799;SDS011;68148;55.328;86.106;2023-07-31T04:17:28;30.13;;;7.53;;
78799;SDS011;68148;55.328;86.106;2023-07-31T04:19:54;21.40;;;7.20;;
78799;SDS011;68148;55.328;86.106;2023-07-31T04:22:19;24.50;;;6.70;;
78799;SDS011;68148;55.328;86.106;2023-07-31T04:24:46;16.13;;;7.15;;
78799;SDS011;68148;55.328;86.106;2023-07-31T04:27:12;17.25;;;6.20;;
78799;SDS011;68148;55.328;86.106;2023-07-31T04:29:37;16.75;;;5.53;;
78799;SDS011;68148;55.328;86.106;2023-07-31T04:32:03;12.40;;;5.25;;
78799;SDS011;68148;55.328;86.106;2023-07-31T04:34:29;11.00;;;5.75;;
78799;SDS011;68148;55.328;86.106;2023-07-31T04:36:55;17.15;;;5.60;;
78799;SDS011;68148;55.328;86.106;2023-07-31T04:39:21;21.75;;;6.25;;
78799;SDS011;68148;55.328;86.106;2023-07-31T04:41:46;7.53;;;4.78;;
78799;SDS011;68148;55.328;86.106;2023-07-31T04:44:12;16.25;;;4.55;;
78799;SDS011;68148;55.328;86.106;2023-07-31T04:46:38;9.98;;;4.65;;
78799;SDS011;68148;55.328;86.106;2023-07-31T04:49:04;15.20;;;5.43;;
78799;SDS011;68148;55.328;86.106;2023-07-31T04:51:30;5.85;;;3.50;;
78799;SDS011;68148;55.328;86.106;2023-07-31T04:53:56;9.38;;;4.05;;
78799;SDS011;68148;55.328;86.106;2023-07-31T04:56:22;4.32;;;3.53;;
78799;SDS011;68148;55.328;86.106;2023-07-31T04:58:47;9.65;;;3.92;;
78799;SDS011;68148;55.328;86.106;2023-07-31T05:01:13;8.00;;;4.13;;
78799;SDS011;68148;55.328;86.106;2023-07-31T05:03:39;6.38;;;4.60;;
78799;SDS011;68148;55.328;86.106;2023-07-31T05:06:05;10.48;;;4.22;;
78799;SDS011;68148;55.328;86.106;2023-07-31T05:08:32;7.10;;;3.60;;
78799;SDS011;68148;55.328;86.106;2023-07-31T05:10:57;9.52;;;4.10;;
78799;SDS011;68148;55.328;86.106;2023-07-31T05:13:23;9.77;;;4.38;;
78799;SDS011;68148;55.328;86.106;2023-07-31T05:15:49;7.22;;;3.80;;
78799;SDS011;68148;55.328;86.106;2023-07-31T05:18:15;7.88;;;4.15;;
78799;SDS011;68148;55.328;86.106;2023-07-31T05:20:45;6.28;;;3.63;;
78799;SDS011;68148;55.328;86.106;2023-07-31T05:23:11;7.05;;;4.05;;
78799;SDS011;68148;55.328;86.106;2023-07-31T05:25:36;6.05;;;4.07;;
78799;SDS011;68148;55.328;86.106;2023-07-31T05:28:02;9.05;;;4.55;;
78799;SDS011;68148;55.328;86.106;2023-07-31T05:30:29;9.82;;;4.13;;
78799;SDS011;68148;55.328;86.106;2023-07-31T05:33:00;6.35;;;4.47;;
78799;SDS011;68148;55.328;86.106;2023-07-31T05:35:26;6.13;;;3.85;;
78799;SDS011;68148;55.328;86.106;2023-07-31T05:37:52;8.40;;;4.13;;
78799;SDS011;68148;55.328;86.106;2023-07-31T05:40:17;8.60;;;4.10;;
78799;SDS011;68148;55.328;86.106;2023-07-31T05:42:43;5.63;;;3.90;;
78799;SDS011;68148;55.328;86.106;2023-07-31T05:45:09;10.60;;;4.20;;
78799;SDS011;68148;55.328;86.106;2023-07-31T05:47:35;7.05;;;4.40;;
78799;SDS011;68148;55.328;86.106;2023-07-31T05:50:01;10.05;;;4.00;;
78799;SDS011;68148;55.328;86.106;2023-07-31T05:52:27;6.82;;;3.83;;
78799;SDS011;68148;55.328;86.106;2023-07-31T05:54:52;5.28;;;4.05;;
78799;SDS011;68148;55.328;86.106;2023-07-31T05:57:18;4.97;;;3.75;;
78799;SDS011;68148;55.328;86.106;2023-07-31T05:59:44;5.43;;;3.60;;
78799;SDS011;68148;55.328;86.106;2023-07-31T06:02:10;4.80;;;3.72;;
78799;SDS011;68148;55.328;86.106;2023-07-31T06:04:36;13.60;;;3.97;;
78799;SDS011;68148;55.328;86.106;2023-07-31T06:07:02;8.52;;;3.95;;
78799;SDS011;68148;55.328;86.106;2023-07-31T06:09:27;33.72;;;4.00;;
78799;SDS011;68148;55.328;86.106;2023-07-31T06:11:53;5.68;;;3.35;;
78799;SDS011;68148;55.328;86.106;2023-07-31T06:14:20;14.52;;;5.28;;
78799;SDS011;68148;55.328;86.106;2023-07-31T06:16:46;7.75;;;3.92;;
78799;SDS011;68148;55.328;86.106;2023-07-31T06:19:11;7.00;;;4.50;;
78799;SDS011;68148;55.328;86.106;2023-07-31T06:21:37;7.40;;;3.50;;
78799;SDS011;68148;55.328;86.106;2023-07-31T06:24:04;3.97;;;3.53;;
78799;SDS011;68148;55.328;86.106;2023-07-31T06:26:30;7.63;;;4.25;;
78799;SDS011;68148;55.328;86.106;2023-07-31T06:28:56;5.72;;;4.13;;
78799;SDS011;68148;55.328;86.106;2023-07-31T06:31:22;7.30;;;4.18;;
78799;SDS011;68148;55.328;86.106;2023-07-31T06:33:48;9.73;;;4.18;;
78799;SDS011;68148;55.328;86.106;2023-07-31T06:36:15;5.68;;;3.78;;
78799;SDS011;68148;55.328;86.106;2023-07-31T06:38:41;5.93;;;3.53;;
78799;SDS011;68148;55.328;86.106;2023-07-31T06:41:06;8.02;;;4.32;;
78799;SDS011;68148;55.328;86.106;2023-07-31T06:43:33;7.57;;;4.18;;
78799;SDS011;68148;55.328;86.106;2023-07-31T06:46:04;10.52;;;4.47;;
78799;SDS011;68148;55.328;86.106;2023-07-31T06:48:34;7.97;;;3.95;;
78799;SDS011;68148;55.328;86.106;2023-07-31T06:51:02;11.63;;;3.90;;
78799;SDS011;68148;55.328;86.106;2023-07-31T06:53:28;8.10;;;3.80;;
78799;SDS011;68148;55.328;86.106;2023-07-31T06:55:54;8.18;;;4.50;;
78799;SDS011;68148;55.328;86.106;2023-07-31T06:58:20;7.70;;;4.25;;
78799;SDS011;68148;55.328;86.106;2023-07-31T07:00:46;10.93;;;4.03;;
78799;SDS011;68148;55.328;86.106;2023-07-31T07:03:11;14.05;;;4.32;;
78799;SDS011;68148;55.328;86.106;2023-07-31T07:05:37;11.70;;;4.88;;
78799;SDS011;68148;55.328;86.106;2023-07-31T07:08:03;5.70;;;3.88;;
78799;SDS011;68148;55.328;86.106;2023-07-31T07:10:29;9.95;;;3.92;;
78799;SDS011;68148;55.328;86.106;2023-07-31T07:12:56;7.70;;;4.40;;
78799;SDS011;68148;55.328;86.106;2023-07-31T07:15:21;6.22;;;4.13;;
78799;SDS011;68148;55.328;86.106;2023-07-31T07:17:48;5.05;;;4.20;;
78799;SDS011;68148;55.328;86.106;2023-07-31T07:20:14;6.13;;;4.40;;
78799;SDS011;68148;55.328;86.106;2023-07-31T07:22:40;8.13;;;4.28;;
78799;SDS011;68148;55.328;86.106;2023-07-31T07:25:06;5.38;;;4.05;;
78799;SDS011;68148;55.328;86.106;2023-07-31T07:27:32;6.93;;;4.25;;
78799;SDS011;68148;55.328;86.106;2023-07-31T07:29:58;6.78;;;4.65;;
78799;SDS011;68148;55.328;86.106;2023-07-31T07:32:24;13.95;;;3.97;;
78799;SDS011;68148;55.328;86.106;2023-07-31T07:34:50;10.43;;;3.60;;
78799;SDS011;68148;55.328;86.106;2023-07-31T07:37:16;8.93;;;4.50;;
78799;SDS011;68148;55.328;86.106;2023-07-31T07:39:42;8.35;;;3.97;;
78799;SDS011;68148;55.328;86.106;2023-07-31T07:42:08;9.13;;;4.65;;
78799;SDS011;68148;55.328;86.106;2023-07-31T07:44:34;8.95;;;3.70;;
78799;SDS011;68148;55.328;86.106;2023-07-31T07:47:00;7.30;;;3.90;;
78799;SDS011;68148;55.328;86.106;2023-07-31T07:49:26;3.95;;;3.55;;
78799;SDS011;68148;55.328;86.106;2023-07-31T07:51:51;7.88;;;4.30;;
78799;SDS011;68148;55.328;86.106;2023-07-31T07:54:17;5.72;;;4.20;;
78799;SDS011;68148;55.328;86.106;2023-07-31T07:56:43;10.27;;;3.80;;
78799;SDS011;68148;55.328;86.106;2023-07-31T07:59:08;7.15;;;3.72;;
78799;SDS011;68148;55.328;86.106;2023-07-31T08:01:34;6.43;;;3.22;;
78799;SDS011;68148;55.328;86.106;2023-07-31T08:04:00;4.60;;;3.65;;
78799;SDS011;68148;55.328;86.106;2023-07-31T08:06:26;6.75;;;3.85;;
78799;SDS011;68148;55.328;86.106;2023-07-31T08:08:51;5.82;;;3.05;;
78799;SDS011;68148;55.328;86.106;2023-07-31T08:11:17;7.70;;;3.70;;
78799;SDS011;68148;55.328;86.106;2023-07-31T08:13:43;7.38;;;4.35;;
78799;SDS011;68148;55.328;86.106;2023-07-31T08:16:09;5.25;;;4.13;;
78799;SDS011;68148;55.328;86.106;2023-07-31T08:18:35;8.07;;;4.25;;
78799;SDS011;68148;55.328;86.106;2023-07-31T08:21:03;6.72;;;4.43;;
78799;SDS011;68148;55.328;86.106;2023-07-31T08:23:29;11.98;;;4.45;;
78799;SDS011;68148;55.328;86.106;2023-07-31T08:25:55;6.85;;;4.63;;
78799;SDS011;68148;55.328;86.106;2023-07-31T08:28:20;5.53;;;3.97;;
78799;SDS011;68148;55.328;86.106;2023-07-31T08:30:46;9.65;;;4.60;;
78799;SDS011;68148;55.328;86.106;2023-07-31T08:33:13;4.85;;;4.20;;
78799;SDS011;68148;55.328;86.106;2023-07-31T08:35:39;7.03;;;4.20;;
78799;SDS011;68148;55.328;86.106;2023-07-31T08:38:05;7.35;;;3.75;;
78799;SDS011;68148;55.328;86.106;2023-07-31T08:40:31;6.00;;;3.25;;
78799;SDS011;68148;55.328;86.106;2023-07-31T08:42:57;6.93;;;3.63;;
78799;SDS011;68148;55.328;86.106;2023-07-31T08:45:23;10.05;;;4.25;;
78799;SDS011;68148;55.328;86.106;2023-07-31T08:47:50;10.25;;;4.32;;
78799;SDS011;68148;55.328;86.106;2023-07-31T08:50:17;6.72;;;3.75;;
78799;SDS011;68148;55.328;86.106;2023-07-31T08:52:45;9.32;;;4.82;;
78799;SDS011;68148;55.328;86.106;2023-07-31T08:55:12;8.90;;;4.32;;
78799;SDS011;68148;55.328;86.106;2023-07-31T08:57:40;6.32;;;4.03;;
78799;SDS011;68148;55.328;86.106;2023-07-31T09:00:08;18.30;;;4.82;;
78799;SDS011;68148;55.328;86.106;2023-07-31T09:02:43;6.85;;;4.18;;
78799;SDS011;68148;55.328;86.106;2023-07-31T09:05:13;5.25;;;3.70;;
78799;SDS011;68148;55.328;86.106;2023-07-31T09:07:40;8.07;;;4.15;;
78799;SDS011;68148;55.328;86.106;2023-07-31T09:10:13;7.80;;;3.92;;
78799;SDS011;68148;55.328;86.106;2023-07-31T09:12:39;4.50;;;3.92;;
78799;SDS011;68148;55.328;86.106;2023-07-31T09:15:05;5.50;;;3.72;;
78799;SDS011;68148;55.328;86.106;2023-07-31T09:17:32;6.75;;;4.40;;
78799;SDS011;68148;55.328;86.106;2023-07-31T09:20:15;7.47;;;4.53;;
78799;SDS011;68148;55.328;86.106;2023-07-31T09:22:43;7.00;;;4.10;;
78799;SDS011;68148;55.328;86.106;2023-07-31T09:25:19;8.88;;;3.85;;
78799;SDS011;68148;55.328;86.106;2023-07-31T09:27:54;5.13;;;3.65;;
78799;SDS011;68148;55.328;86.106;2023-07-31T09:30:22;9.35;;;4.15;;
78799;SDS011;68148;55.328;86.106;2023-07-31T09:32:49;8.30;;;4.10;;
78799;SDS011;68148;55.328;86.106;2023-07-31T09:35:27;5.38;;;3.42;;
78799;SDS011;68148;55.328;86.106;2023-07-31T09:38:00;4.60;;;4.00;;
78799;SDS011;68148;55.328;86.106;2023-07-31T09:40:36;8.55;;;4.22;;
78799;SDS011;68148;55.328;86.106;2023-07-31T09:43:19;8.00;;;3.97;;
78799;SDS011;68148;55.328;86.106;2023-07-31T09:45:45;4.75;;;3.90;;
78799;SDS011;68148;55.328;86.106;2023-07-31T09:48:16;4.82;;;3.83;;
78799;SDS011;68148;55.328;86.106;2023-07-31T09:50:46;5.07;;;3.35;;
78799;SDS011;68148;55.328;86.106;2023-07-31T09:53:14;5.70;;;3.60;;
78799;SDS011;68148;55.328;86.106;2023-07-31T09:55:41;5.03;;;3.50;;
78799;SDS011;68148;55.328;86.106;2023-07-31T09:58:11;7.35;;;3.22;;
78799;SDS011;68148;55.328;86.106;2023-07-31T10:00:38;5.25;;;3.30;;
78799;SDS011;68148;55.328;86.106;2023-07-31T10:03:07;6.63;;;4.10;;
78799;SDS011;68148;55.328;86.106;2023-07-31T10:05:40;7.32;;;4.15;;
78799;SDS011;68148;55.328;86.106;2023-07-31T10:08:12;8.95;;;4.57;;
78799;SDS011;68148;55.328;86.106;2023-07-31T10:10:43;5.75;;;4.07;;
78799;SDS011;68148;55.328;86.106;2023-07-31T10:13:10;18.02;;;5.05;;
78799;SDS011;68148;55.328;86.106;2023-07-31T10:15:37;4.30;;;3.13;;
78799;SDS011;68148;55.328;86.106;2023-07-31T10:18:07;4.72;;;3.40;;
78799;SDS011;68148;55.328;86.106;2023-07-31T10:20:33;6.43;;;3.90;;
78799;SDS011;68148;55.328;86.106;2023-07-31T10:23:00;7.18;;;4.65;;
78799;SDS011;68148;55.328;86.106;2023-07-31T10:25:27;6.70;;;3.90;;
78799;SDS011;68148;55.328;86.106;2023-07-31T10:27:53;7.88;;;4.53;;
78799;SDS011;68148;55.328;86.106;2023-07-31T10:30:25;7.63;;;4.32;;
78799;SDS011;68148;55.328;86.106;2023-07-31T10:32:53;7.50;;;4.55;;
78799;SDS011;68148;55.328;86.106;2023-07-31T10:35:27;8.23;;;4.50;;
78799;SDS011;68148;55.328;86.106;2023-07-31T10:37:53;8.70;;;3.85;;
78799;SDS011;68148;55.328;86.106;2023-07-31T10:40:19;6.60;;;3.67;;
78799;SDS011;68148;55.328;86.106;2023-07-31T10:42:53;6.00;;;3.75;;
78799;SDS011;68148;55.328;86.106;2023-07-31T10:45:24;18.33;;;4.65;;
78799;SDS011;68148;55.328;86.106;2023-07-31T10:48:14;6.30;;;4.43;;
78799;SDS011;68148;55.328;86.106;2023-07-31T10:50:48;6.63;;;3.65;;
78799;SDS011;68148;55.328;86.106;2023-07-31T10:53:25;6.93;;;4.18;;
78799;SDS011;68148;55.328;86.106;2023-07-31T10:55:52;6.82;;;4.32;;
78799;SDS011;68148;55.328;86.106;2023-07-31T10:58:18;6.60;;;4.38;;
78799;SDS011;68148;55.328;86.106;2023-07-31T11:00:45;6.72;;;3.92;;
78799;SDS011;68148;55.328;86.106;2023-07-31T11:03:12;7.57;;;3.88;;
78799;SDS011;68148;55.328;86.106;2023-07-31T11:05:43;14.15;;;5.43;;
78799;SDS011;68148;55.328;86.106;2023-07-31T11:08:13;5.88;;;4.38;;
78799;SDS011;68148;55.328;86.106;2023-07-31T11:10:40;9.75;;;4.20;;
78799;SDS011;68148;55.328;86.106;2023-07-31T11:13:06;4.30;;;3.10;;
78799;SDS011;68148;55.328;86.106;2023-07-31T11:15:32;6.43;;;4.28;;
78799;SDS011;68148;55.328;86.106;2023-07-31T11:17:59;5.78;;;3.67;;
78799;SDS011;68148;55.328;86.106;2023-07-31T11:20:26;4.80;;;4.03;;
78799;SDS011;68148;55.328;86.106;2023-07-31T11:22:52;5.72;;;4.13;;
78799;SDS011;68148;55.328;86.106;2023-07-31T11:25:18;7.15;;;4.10;;
78799;SDS011;68148;55.328;86.106;2023-07-31T11:27:44;6.30;;;4.25;;
78799;SDS011;68148;55.328;86.106;2023-07-31T11:30:09;11.40;;;4.53;;
78799;SDS011;68148;55.328;86.106;2023-07-31T11:32:36;5.60;;;3.90;;
78799;SDS011;68148;55.328;86.106;2023-07-31T11:35:02;3.78;;;3.20;;
78799;SDS011;68148;55.328;86.106;2023-07-31T11:37:41;4.90;;;3.83;;
78799;SDS011;68148;55.328;86.106;2023-07-31T11:40:08;7.03;;;4.40;;
78799;SDS011;68148;55.328;86.106;2023-07-31T11:42:35;10.57;;;3.70;;
78799;SDS011;68148;55.328;86.106;2023-07-31T11:45:02;8.57;;;4.05;;
78799;SDS011;68148;55.328;86.106;2023-07-31T11:47:29;11.98;;;6.15;;
78799;SDS011;68148;55.328;86.106;2023-07-31T11:49:57;8.40;;;5.15;;
78799;SDS011;68148;55.328;86.106;2023-07-31T11:52:23;5.32;;;3.42;;
78799;SDS011;68148;55.328;86.106;2023-07-31T11:54:54;6.00;;;3.90;;
78799;SDS011;68148;55.328;86.106;2023-07-31T11:57:20;6.95;;;4.20;;
78799;SDS011;68148;55.328;86.106;2023-07-31T11:59:47;8.35;;;4.90;;
78799;SDS011;68148;55.328;86.106;2023-07-31T12:04:40;7.05;;;4.22;;
78799;SDS011;68148;55.328;86.106;2023-07-31T12:07:06;5.60;;;4.10;;
78799;SDS011;68148;55.328;86.106;2023-07-31T12:09:33;7.40;;;3.90;;
78799;SDS011;68148;55.328;86.106;2023-07-31T12:12:08;12.73;;;4.90;;
78799;SDS011;68148;55.328;86.106;2023-07-31T12:14:34;9.82;;;3.83;;
78799;SDS011;68148;55.328;86.106;2023-07-31T12:17:00;8.10;;;4.50;;
78799;SDS011;68148;55.328;86.106;2023-07-31T12:19:29;9.02;;;3.97;;
78799;SDS011;68148;55.328;86.106;2023-07-31T12:21:56;6.60;;;4.70;;
78799;SDS011;68148;55.328;86.106;2023-07-31T12:24:24;5.85;;;4.32;;
78799;SDS011;68148;55.328;86.106;2023-07-31T12:26:52;5.68;;;3.47;;
78799;SDS011;68148;55.328;86.106;2023-07-31T12:29:17;14.15;;;7.25;;
78799;SDS011;68148;55.328;86.106;2023-07-31T12:31:43;5.43;;;4.80;;
78799;SDS011;68148;55.328;86.106;2023-07-31T12:34:15;9.82;;;5.25;;
78799;SDS011;68148;55.328;86.106;2023-07-31T12:36:42;6.03;;;4.53;;
78799;SDS011;68148;55.328;86.106;2023-07-31T12:39:08;10.05;;;4.07;;
78799;SDS011;68148;55.328;86.106;2023-07-31T12:41:35;7.47;;;4.57;;
78799;SDS011;68148;55.328;86.106;2023-07-31T12:44:02;7.32;;;3.83;;
78799;SDS011;68148;55.328;86.106;2023-07-31T12:46:28;9.25;;;4.72;;
78799;SDS011;68148;55.328;86.106;2023-07-31T12:48:54;15.80;;;4.90;;
78799;SDS011;68148;55.328;86.106;2023-07-31T12:51:20;11.73;;;4.78;;
78799;SDS011;68148;55.328;86.106;2023-07-31T12:53:45;11.52;;;4.97;;
78799;SDS011;68148;55.328;86.106;2023-07-31T12:56:12;12.15;;;5.43;;
78799;SDS011;68148;55.328;86.106;2023-07-31T12:58:40;15.52;;;5.28;;
78799;SDS011;68148;55.328;86.106;2023-07-31T13:01:06;13.18;;;5.13;;
78799;SDS011;68148;55.328;86.106;2023-07-31T13:03:32;13.05;;;5.05;;
78799;SDS011;68148;55.328;86.106;2023-07-31T13:05:57;9.73;;;4.85;;
78799;SDS011;68148;55.328;86.106;2023-07-31T13:08:26;17.00;;;6.20;;
78799;SDS011;68148;55.328;86.106;2023-07-31T13:10:53;25.23;;;5.80;;
78799;SDS011;68148;55.328;86.106;2023-07-31T13:13:22;19.50;;;5.18;;
78799;SDS011;68148;55.328;86.106;2023-07-31T13:15:48;19.48;;;5.85;;
78799;SDS011;68148;55.328;86.106;2023-07-31T13:18:13;9.38;;;5.13;;
78799;SDS011;68148;55.328;86.106;2023-07-31T13:20:39;7.90;;;4.90;;
78799;SDS011;68148;55.328;86.106;2023-07-31T13:23:05;9.63;;;4.93;;
78799;SDS011;68148;55.328;86.106;2023-07-31T13:25:31;12.65;;;5.00;;
78799;SDS011;68148;55.328;86.106;2023-07-31T13:27:57;6.25;;;4.35;;
78799;SDS011;68148;55.328;86.106;2023-07-31T13:30:23;17.00;;;5.30;;
78799;SDS011;68148;55.328;86.106;2023-07-31T13:35:15;9.18;;;5.88;;
78799;SDS011;68148;55.328;86.106;2023-07-31T13:37:41;14.25;;;5.63;;
78799;SDS011;68148;55.328;86.106;2023-07-31T13:40:07;11.43;;;5.70;;
78799;SDS011;68148;55.328;86.106;2023-07-31T13:42:33;12.75;;;6.05;;
78799;SDS011;68148;55.328;86.106;2023-07-31T13:44:59;17.27;;;6.00;;
78799;SDS011;68148;55.328;86.106;2023-07-31T13:47:25;18.50;;;6.50;;
78799;SDS011;68148;55.328;86.106;2023-07-31T13:49:51;10.90;;;5.40;;
78799;SDS011;68148;55.328;86.106;2023-07-31T13:52:19;10.73;;;6.40;;
78799;SDS011;68148;55.328;86.106;2023-07-31T13:54:45;18.77;;;6.72;;
78799;SDS011;68148;55.328;86.106;2023-07-31T13:57:11;16.30;;;5.63;;
78799;SDS011;68148;55.328;86.106;2023-07-31T13:59:36;14.63;;;6.40;;
78799;SDS011;68148;55.328;86.106;2023-07-31T14:02:02;15.23;;;6.95;;
78799;SDS011;68148;55.328;86.106;2023-07-31T14:04:28;11.60;;;6.28;;
78799;SDS011;68148;55.328;86.106;2023-07-31T14:06:55;19.77;;;6.85;;
78799;SDS011;68148;55.328;86.106;2023-07-31T14:11:46;17.55;;;7.15;;
78799;SDS011;68148;55.328;86.106;2023-07-31T14:14:12;13.07;;;7.45;;
78799;SDS011;68148;55.328;86.106;2023-07-31T14:16:38;26.42;;;9.65;;
78799;SDS011;68148;55.328;86.106;2023-07-31T14:19:03;18.00;;;9.48;;
78799;SDS011;68148;55.328;86.106;2023-07-31T14:21:29;17.92;;;9.63;;
78799;SDS011;68148;55.328;86.106;2023-07-31T14:23:55;20.42;;;10.38;;
78799;SDS011;68148;55.328;86.106;2023-07-31T14:26:21;17.10;;;12.20;;
78799;SDS011;68148;55.328;86.106;2023-07-31T14:28:46;24.58;;;11.18;;
78799;SDS011;68148;55.328;86.106;2023-07-31T14:31:12;20.65;;;10.60;;
78799;SDS011;68148;55.328;86.106;2023-07-31T14:33:38;19.42;;;10.20;;
78799;SDS011;68148;55.328;86.106;2023-07-31T14:36:04;15.27;;;10.93;;
78799;SDS011;68148;55.328;86.106;2023-07-31T14:38:30;15.10;;;9.13;;
78799;SDS011;68148;55.328;86.106;2023-07-31T14:40:56;19.20;;;9.35;;
78799;SDS011;68148;55.328;86.106;2023-07-31T14:43:27;15.57;;;8.85;;